Time;durP1;ratioP1;P1;durP2;ratioP2;P2;SDS_P1;SDS_P2;PMS_P1;PMS_P2;Temp;Humidity;BMP_temperature;BMP_pressure;BME280_temperature;BME280_humidity;BME280_pressure;Samples;Min_cycle;Max_cycle;Signal;HPM_P1;HPM_P2
2022/10/18 00:00:24;;;;;;;1999.90;999.90;;;;;;;;;;5097609;27;20230;-73
2022/10/18 00:02:51;;;;;;;1999.90;999.90;;;;;;;;;;5111403;27;20230;-72
2022/10/18 00:05:19;;;;;;;1999.90;999.90;;;;;;;;;;5112010;27;20317;-75
2022/10/18 00:07:47;;;;;;;1999.90;999.90;;;;;;;;;;5102970;27;20736;-69
2022/10/18 00:10:14;;;;;;;1999.90;999.90;;;;;;;;;;5098613;27;20230;-73
2022/10/18 00:12:42;;;;;;;1999.90;999.90;;;;;;;;;;5099841;27;20237;-70
2022/10/18 00:15:11;;;;;;;1999.90;999.90;;;;;;;;;;5101149;27;20238;-72
2022/10/18 00:17:39;;;;;;;1999.90;999.90;;;;;;;;;;5103971;27;20223;-73
2022/10/18 00:20:07;;;;;;;1999.90;999.90;;;;;;;;;;5103664;27;20347;-73
2022/10/18 00:22:35;;;;;;;1999.90;999.90;;;;;;;;;;5099565;27;20276;-70
2022/10/18 00:25:04;;;;;;;1999.90;999.90;;;;;;;;;;5098939;27;20222;-76
2022/10/18 00:27:32;;;;;;;1999.90;999.90;;;;;;;;;;5104847;27;20233;-76
2022/10/18 00:30:00;;;;;;;1999.90;999.90;;;;;;;;;;5081026;27;20751;-73
2022/10/18 00:32:29;;;;;;;1999.90;999.90;;;;;;;;;;5101497;27;21626;-73
2022/10/18 00:34:57;;;;;;;1999.90;999.90;;;;;;;;;;5103351;27;20744;-72
2022/10/18 00:37:24;;;;;;;1999.90;999.90;;;;;;;;;;5102427;27;20318;-72
2022/10/18 00:39:52;;;;;;;1999.90;999.90;;;;;;;;;;5101803;27;20315;-71
2022/10/18 00:42:21;;;;;;;1999.90;999.90;;;;;;;;;;5103659;27;20245;-74
2022/10/18 00:45:17;;;;;;;1999.90;999.90;;;;;;;;;;5103996;27;20295;-71
2022/10/18 00:47:47;;;;;;;1999.90;999.90;;;;;;;;;;5102447;27;21963;-73
2022/10/18 00:50:15;;;;;;;1999.90;999.90;;;;;;;;;;5103500;27;20254;-70
2022/10/18 00:52:44;;;;;;;1999.90;999.90;;;;;;;;;;5083424;28;20222;-70
2022/10/18 00:55:12;;;;;;;1999.90;999.90;;;;;;;;;;5104372;27;21406;-71
2022/10/18 00:57:41;;;;;;;1999.90;999.90;;;;;;;;;;5100825;27;20302;-75
2022/10/18 01:00:09;;;;;;;1999.90;999.90;;;;;;;;;;5100821;27;20227;-72
2022/10/18 01:02:37;;;;;;;1999.90;999.90;;;;;;;;;;5099427;27;20230;-71
2022/10/18 01:05:07;;;;;;;1999.90;999.90;;;;;;;;;;5103955;27;20780;-73
2022/10/18 01:07:41;;;;;;;1999.90;999.90;;;;;;;;;;5104833;27;21593;-74
2022/10/18 01:10:14;;;;;;;1999.90;999.90;;;;;;;;;;5101972;27;20321;-75
2022/10/18 01:12:47;;;;;;;1999.90;999.90;;;;;;;;;;5082707;28;20245;-73
2022/10/18 01:15:16;;;;;;;1999.90;999.90;;;;;;;;;;5104548;27;20241;-76
2022/10/18 01:17:49;;;;;;;1999.90;999.90;;;;;;;;;;5104275;27;20222;-74
2022/10/18 01:20:25;;;;;;;1999.90;999.90;;;;;;;;;;5101033;27;20222;-75
2022/10/18 01:22:55;;;;;;;1999.90;999.90;;;;;;;;;;5098996;27;20229;-74
2022/10/18 01:25:29;;;;;;;1999.90;999.90;;;;;;;;;;5103957;27;20291;-70
2022/10/18 01:27:59;;;;;;;1999.90;999.90;;;;;;;;;;5084935;27;20739;-74
2022/10/18 01:30:51;;;;;;;1999.90;999.90;;;;;;;;;;5100904;27;20231;-74
2022/10/18 01:33:23;;;;;;;1999.90;999.90;;;;;;;;;;5082212;28;20246;-73
2022/10/18 01:35:53;;;;;;;1999.90;999.90;;;;;;;;;;5099612;27;20321;-75
2022/10/18 01:38:21;;;;;;;1999.90;999.90;;;;;;;;;;5100286;27;20235;-74
2022/10/18 01:40:50;;;;;;;1999.90;999.90;;;;;;;;;;5099377;27;20229;-74
2022/10/18 01:43:19;;;;;;;1999.90;999.90;;;;;;;;;;5097008;27;20235;-74
2022/10/18 01:45:47;;;;;;;1999.90;999.90;;;;;;;;;;5083496;27;20233;-75
2022/10/18 01:48:16;;;;;;;1999.90;999.90;;;;;;;;;;5100035;27;20222;-75
2022/10/18 01:50:45;;;;;;;1999.90;999.90;;;;;;;;;;5102174;27;20231;-74
2022/10/18 01:53:26;;;;;;;1999.90;999.90;;;;;;;;;;5096418;27;20321;-74
2022/10/18 01:56:08;;;;;;;1999.90;999.90;;;;;;;;;;5098661;27;20230;-74
2022/10/18 01:58:38;;;;;;;1999.90;999.90;;;;;;;;;;5103754;27;20262;-73
2022/10/18 02:01:08;;;;;;;1999.90;999.90;;;;;;;;;;5096450;27;20227;-75
2022/10/18 02:03:37;;;;;;;1999.90;999.90;;;;;;;;;;5100625;27;20233;-73
2022/10/18 02:06:10;;;;;;;1999.90;999.90;;;;;;;;;;5102260;27;20616;-73
2022/10/18 02:08:39;;;;;;;1999.90;999.90;;;;;;;;;;5102481;27;20242;-71
2022/10/18 02:11:08;;;;;;;1999.90;999.90;;;;;;;;;;5101731;27;20226;-75
2022/10/18 02:13:38;;;;;;;1999.90;999.90;;;;;;;;;;5100814;27;20321;-75
2022/10/18 02:16:22;;;;;;;1999.90;999.90;;;;;;;;;;5121161;27;20242;-72
2022/10/18 02:18:53;;;;;;;1999.90;999.90;;;;;;;;;;5106035;27;20666;-73
2022/10/18 02:21:24;;;;;;;1999.90;999.90;;;;;;;;;;5106274;27;20222;-73
2022/10/18 02:23:52;;;;;;;1999.90;999.90;;;;;;;;;;5105610;27;20713;-72
2022/10/18 02:26:20;;;;;;;1999.90;999.90;;;;;;;;;;5089921;28;20339;-76
2022/10/18 02:28:51;;;;;;;1999.90;999.90;;;;;;;;;;5104560;27;20325;-73
2022/10/18 02:31:20;;;;;;;1999.90;999.90;;;;;;;;;;5106752;27;20230;-73
2022/10/18 02:33:51;;;;;;;1999.90;999.90;;;;;;;;;;5107649;27;20247;-75
2022/10/18 02:36:22;;;;;;;1999.90;999.90;;;;;;;;;;5104098;27;20237;-74
2022/10/18 02:38:52;;;;;;;1999.90;999.90;;;;;;;;;;5116282;27;20260;-72
2022/10/18 02:41:22;;;;;;;1999.90;999.90;;;;;;;;;;5119468;27;20328;-75
2022/10/18 02:43:49;;;;;;;1999.90;999.90;;;;;;;;;;5122438;27;20277;-75
2022/10/18 02:46:17;;;;;;;1999.90;999.90;;;;;;;;;;5109663;22;20738;-73
2022/10/18 02:48:45;;;;;;;1999.90;999.90;;;;;;;;;;5104427;27;20241;-73
2022/10/18 02:51:13;;;;;;;1999.90;999.90;;;;;;;;;;5104530;27;20823;-74
2022/10/18 02:53:41;;;;;;;1999.90;999.90;;;;;;;;;;5100380;27;20227;-74
2022/10/18 02:56:10;;;;;;;1999.90;999.90;;;;;;;;;;5104153;27;20243;-73
2022/10/18 02:58:38;;;;;;;1999.90;999.90;;;;;;;;;;5100925;27;20730;-74
2022/10/18 03:01:05;;;;;;;1999.90;999.90;;;;;;;;;;5102102;27;20266;-73
2022/10/18 03:03:33;;;;;;;1999.90;999.90;;;;;;;;;;5098186;27;20226;-73
2022/10/18 03:06:01;;;;;;;1999.90;999.90;;;;;;;;;;5101844;27;20788;-73
2022/10/18 03:08:29;;;;;;;1999.90;999.90;;;;;;;;;;5103562;27;20711;-74
2022/10/18 03:10:56;;;;;;;1999.90;999.90;;;;;;;;;;5106236;27;20238;-73
2022/10/18 03:13:26;;;;;;;1999.90;999.90;;;;;;;;;;5106902;27;20237;-74
2022/10/18 03:15:54;;;;;;;1999.90;999.90;;;;;;;;;;5109606;27;20726;-74
2022/10/18 03:18:21;;;;;;;1999.90;999.90;;;;;;;;;;5111587;27;20355;-74
2022/10/18 03:20:49;;;;;;;1999.90;999.90;;;;;;;;;;5108809;27;20257;-74
2022/10/18 03:23:17;;;;;;;1999.90;999.90;;;;;;;;;;5108084;27;20222;-74
2022/10/18 03:25:45;;;;;;;1999.90;999.90;;;;;;;;;;5106892;27;20296;-74
2022/10/18 03:28:13;;;;;;;1999.90;999.90;;;;;;;;;;5106457;27;20237;-74
2022/10/18 03:30:42;;;;;;;1999.90;999.90;;;;;;;;;;5120200;27;20238;-73
2022/10/18 03:33:09;;;;;;;1999.90;999.90;;;;;;;;;;5103122;27;20230;-73
2022/10/18 03:35:37;;;;;;;1999.90;999.90;;;;;;;;;;5093067;27;20227;-73
2022/10/18 03:38:05;;;;;;;1999.90;999.90;;;;;;;;;;5084858;27;20242;-74
2022/10/18 03:40:32;;;;;;;1999.90;999.90;;;;;;;;;;5099395;27;20731;-74
2022/10/18 03:43:00;;;;;;;1999.90;999.90;;;;;;;;;;5100448;27;20230;-77
2022/10/18 03:45:28;;;;;;;1999.90;999.90;;;;;;;;;;5100446;27;20226;-77
2022/10/18 03:47:59;;;;;;;1999.90;999.90;;;;;;;;;;5101978;27;20231;-76
2022/10/18 03:50:27;;;;;;;1999.90;999.90;;;;;;;;;;5082253;28;20257;-76
2022/10/18 03:52:55;;;;;;;1999.90;999.90;;;;;;;;;;5080378;27;20230;-77
2022/10/18 03:55:23;;;;;;;1999.90;999.90;;;;;;;;;;5098300;27;20708;-76
2022/10/18 03:57:50;;;;;;;1999.90;999.90;;;;;;;;;;5099348;27;20244;-76
2022/10/18 04:00:18;;;;;;;1999.90;999.90;;;;;;;;;;5103902;27;20254;-76
2022/10/18 04:02:46;;;;;;;1999.90;999.90;;;;;;;;;;5096657;27;20364;-77
2022/10/18 04:05:22;;;;;;;1999.90;999.90;;;;;;;;;;5097991;27;20230;-76
2022/10/18 04:07:50;;;;;;;1999.90;999.90;;;;;;;;;;5095183;27;20276;-76
2022/10/18 04:10:18;;;;;;;1999.90;999.90;;;;;;;;;;5097679;27;20739;-76
2022/10/18 04:12:46;;;;;;;1999.90;999.90;;;;;;;;;;5090958;27;20963;-76
2022/10/18 04:15:14;;;;;;;1999.90;999.90;;;;;;;;;;5098607;27;20298;-76
2022/10/18 04:17:42;;;;;;;1999.90;999.90;;;;;;;;;;5100679;27;20230;-76
2022/10/18 04:20:10;;;;;;;1999.90;999.90;;;;;;;;;;5100867;27;20235;-75
2022/10/18 04:22:39;;;;;;;1999.90;999.90;;;;;;;;;;5101784;27;20728;-77
2022/10/18 04:25:07;;;;;;;1999.90;999.90;;;;;;;;;;5102219;27;20226;-76
2022/10/18 04:27:35;;;;;;;1999.90;999.90;;;;;;;;;;5102376;27;20317;-77
2022/10/18 04:30:03;;;;;;;1999.90;999.90;;;;;;;;;;5101606;27;20411;-77
2022/10/18 04:32:31;;;;;;;1999.90;999.90;;;;;;;;;;5101366;27;20230;-76
2022/10/18 04:34:59;;;;;;;1999.90;999.90;;;;;;;;;;5099539;27;21073;-76
2022/10/18 04:37:27;;;;;;;1999.90;999.90;;;;;;;;;;5102693;27;20242;-76
2022/10/18 04:39:56;;;;;;;1999.90;999.90;;;;;;;;;;5103015;27;21001;-76
2022/10/18 04:42:24;;;;;;;1999.90;999.90;;;;;;;;;;5098138;27;20238;-76
2022/10/18 04:44:52;;;;;;;1999.90;999.90;;;;;;;;;;5102478;27;20229;-76
2022/10/18 04:47:20;;;;;;;1999.90;999.90;;;;;;;;;;5101727;27;20231;-75
2022/10/18 04:49:48;;;;;;;1999.90;999.90;;;;;;;;;;5085791;28;20223;-76
2022/10/18 04:52:15;;;;;;;1999.90;999.90;;;;;;;;;;5102309;27;20237;-75
2022/10/18 04:54:43;;;;;;;1999.90;999.90;;;;;;;;;;5083167;27;20662;-74
2022/10/18 04:57:12;;;;;;;1999.90;999.90;;;;;;;;;;5100123;27;20249;-76
2022/10/18 04:59:40;;;;;;;1999.90;999.90;;;;;;;;;;5095938;27;20276;-75
2022/10/18 05:02:08;;;;;;;1999.90;999.90;;;;;;;;;;5097320;27;20234;-76
2022/10/18 05:04:36;;;;;;;1999.90;999.90;;;;;;;;;;5077693;28;20222;-76
2022/10/18 05:07:05;;;;;;;1999.90;999.90;;;;;;;;;;5094815;27;20314;-76
2022/10/18 05:09:33;;;;;;;1999.90;999.90;;;;;;;;;;5117701;27;20303;-76
2022/10/18 05:12:01;;;;;;;1999.90;999.90;;;;;;;;;;5110337;27;20223;-76
2022/10/18 05:14:30;;;;;;;1999.90;999.90;;;;;;;;;;5122782;27;20222;-76
2022/10/18 05:16:58;;;;;;;1999.90;999.90;;;;;;;;;;5113292;27;20238;-76
2022/10/18 05:19:25;;;;;;;1999.90;999.90;;;;;;;;;;5112481;27;21098;-76
2022/10/18 05:21:53;;;;;;;1999.90;999.90;;;;;;;;;;5108571;27;20226;-77
2022/10/18 05:24:21;;;;;;;1999.90;999.90;;;;;;;;;;5101604;27;20292;-76
2022/10/18 05:26:54;;;;;;;1999.90;999.90;;;;;;;;;;5096653;27;20726;-76
2022/10/18 05:29:22;;;;;;;1999.90;999.90;;;;;;;;;;5082154;28;20225;-76
2022/10/18 05:31:51;;;;;;;1999.90;999.90;;;;;;;;;;5101370;27;20322;-76
2022/10/18 05:34:19;;;;;;;1999.90;999.90;;;;;;;;;;5082402;27;20257;-76
2022/10/18 05:36:48;;;;;;;1999.90;999.90;;;;;;;;;;5098287;27;20230;-76
2022/10/18 05:39:16;;;;;;;1999.90;999.90;;;;;;;;;;5097647;27;20222;-76
2022/10/18 05:41:44;;;;;;;1999.90;999.90;;;;;;;;;;5101529;27;20238;-76
2022/10/18 05:44:11;;;;;;;1999.90;999.90;;;;;;;;;;5096301;27;20230;-76
2022/10/18 05:46:39;;;;;;;1999.90;999.90;;;;;;;;;;5097038;27;20699;-75
2022/10/18 05:49:09;;;;;;;1999.90;999.90;;;;;;;;;;5095565;27;20262;-75
2022/10/18 05:51:37;;;;;;;1999.90;999.90;;;;;;;;;;5096602;27;20231;-76
2022/10/18 05:54:05;;;;;;;1999.90;999.90;;;;;;;;;;5095998;27;20718;-77
2022/10/18 05:56:32;;;;;;;1999.90;999.90;;;;;;;;;;5098126;27;20215;-77
2022/10/18 05:59:01;;;;;;;1999.90;999.90;;;;;;;;;;5099077;27;20227;-77
2022/10/18 06:01:29;;;;;;;1999.90;999.90;;;;;;;;;;5088940;27;20352;-76
2022/10/18 06:03:57;;;;;;;1999.90;999.90;;;;;;;;;;5091567;27;20392;-77
2022/10/18 06:06:26;;;;;;;1999.90;999.90;;;;;;;;;;5113057;27;20241;-76
2022/10/18 06:08:54;;;;;;;1999.90;999.90;;;;;;;;;;5094685;27;20310;-77
2022/10/18 06:11:22;;;;;;;1999.90;999.90;;;;;;;;;;5097199;27;20741;-76
2022/10/18 06:13:51;;;;;;;1999.90;999.90;;;;;;;;;;5077782;27;20226;-76
2022/10/18 06:16:19;;;;;;;1999.90;999.90;;;;;;;;;;5094594;27;20888;-76
2022/10/18 06:18:48;;;;;;;1999.90;999.90;;;;;;;;;;5102603;27;20241;-77
2022/10/18 06:21:16;;;;;;;1999.90;999.90;;;;;;;;;;5090760;27;20739;-76
2022/10/18 06:23:47;;;;;;;1999.90;999.90;;;;;;;;;;5091949;27;20301;-75
2022/10/18 06:26:15;;;;;;;1999.90;999.90;;;;;;;;;;5100348;27;20218;-76
2022/10/18 06:28:43;;;;;;;1999.90;999.90;;;;;;;;;;5112713;27;20222;-76
2022/10/18 06:31:12;;;;;;;1999.90;999.90;;;;;;;;;;5097476;27;20234;-78
2022/10/18 06:33:40;;;;;;;1999.90;999.90;;;;;;;;;;5084359;27;20230;-76
2022/10/18 06:36:10;;;;;;;1999.90;999.90;;;;;;;;;;5095546;27;20617;-77
2022/10/18 06:38:38;;;;;;;1999.90;999.90;;;;;;;;;;5115634;27;20239;-76
2022/10/18 06:41:07;;;;;;;1999.90;999.90;;;;;;;;;;5092410;27;20226;-77
2022/10/18 06:43:35;;;;;;;1999.90;999.90;;;;;;;;;;5095030;27;20218;-76
2022/10/18 06:46:05;;;;;;;1999.90;999.90;;;;;;;;;;5080060;27;20233;-76
2022/10/18 06:48:33;;;;;;;1999.90;999.90;;;;;;;;;;5097444;27;20233;-77
2022/10/18 06:51:02;;;;;;;1999.90;999.90;;;;;;;;;;5095444;27;20231;-76
2022/10/18 06:53:30;;;;;;;1999.90;999.90;;;;;;;;;;5098276;27;22735;-77
2022/10/18 06:55:59;;;;;;;1999.90;999.90;;;;;;;;;;5093356;27;21516;-78
2022/10/18 06:58:28;;;;;;;1999.90;999.90;;;;;;;;;;5094120;27;20238;-78
2022/10/18 07:00:56;;;;;;;1999.90;999.90;;;;;;;;;;5096249;27;20235;-77
2022/10/18 07:03:25;;;;;;;1999.90;999.90;;;;;;;;;;5098345;27;20231;-77
2022/10/18 07:05:52;;;;;;;1999.90;999.90;;;;;;;;;;5102116;27;20238;-77
2022/10/18 07:08:20;;;;;;;1999.90;999.90;;;;;;;;;;5099597;27;20230;-77
2022/10/18 07:10:52;;;;;;;1999.90;999.90;;;;;;;;;;5098067;27;20739;-77
2022/10/18 07:13:20;;;;;;;1999.90;999.90;;;;;;;;;;5098112;27;20231;-79
2022/10/18 07:16:02;;;;;;;1999.90;999.90;;;;;;;;;;5096098;27;20326;-77
2022/10/18 07:18:30;;;;;;;1999.90;999.90;;;;;;;;;;5098851;27;21037;-76
2022/10/18 07:21:00;;;;;;;1999.90;999.90;;;;;;;;;;5081857;27;20275;-76
2022/10/18 07:23:28;;;;;;;1999.90;999.90;;;;;;;;;;5100321;27;20263;-76
2022/10/18 07:25:56;;;;;;;1999.90;999.90;;;;;;;;;;5099406;27;20773;-76
2022/10/18 07:28:23;;;;;;;1999.90;999.90;;;;;;;;;;5108608;27;20299;-76
2022/10/18 07:30:51;;;;;;;1999.90;999.90;;;;;;;;;;5109306;27;20238;-76
2022/10/18 07:33:20;;;;;;;1999.90;999.90;;;;;;;;;;5111084;27;20231;-76
2022/10/18 07:35:48;;;;;;;1999.90;999.90;;;;;;;;;;5113856;27;20222;-77
2022/10/18 07:38:16;;;;;;;1999.90;999.90;;;;;;;;;;5113045;27;20222;-76
2022/10/18 07:40:43;;;;;;;1999.90;999.90;;;;;;;;;;5113297;27;21129;-77
2022/10/18 07:43:11;;;;;;;1999.90;999.90;;;;;;;;;;5112299;27;20234;-76
2022/10/18 07:45:39;;;;;;;1999.90;999.90;;;;;;;;;;5112369;27;20231;-76
2022/10/18 07:48:07;;;;;;;1999.90;999.90;;;;;;;;;;5112378;27;20308;-76
2022/10/18 07:50:36;;;;;;;1999.90;999.90;;;;;;;;;;5109480;27;20273;-76
2022/10/18 07:53:04;;;;;;;1999.90;999.90;;;;;;;;;;5110063;27;20284;-77
2022/10/18 07:55:33;;;;;;;1999.90;999.90;;;;;;;;;;5108325;27;20235;-76
2022/10/18 07:58:01;;;;;;;1999.90;999.90;;;;;;;;;;5109013;27;20254;-76
2022/10/18 08:00:29;;;;;;;1999.90;999.90;;;;;;;;;;5107525;27;20236;-76
2022/10/18 08:02:56;;;;;;;1999.90;999.90;;;;;;;;;;5123452;27;20222;-76
2022/10/18 08:05:25;;;;;;;1999.90;999.90;;;;;;;;;;5107758;27;20309;-75
2022/10/18 08:07:54;;;;;;;1999.90;999.90;;;;;;;;;;5109785;27;20234;-76
2022/10/18 08:10:23;;;;;;;1999.90;999.90;;;;;;;;;;5107228;27;20749;-76
2022/10/18 08:12:51;;;;;;;1999.90;999.90;;;;;;;;;;5107721;27;20719;-76
2022/10/18 08:15:20;;;;;;;1999.90;999.90;;;;;;;;;;5111848;27;20303;-76
2022/10/18 08:17:48;;;;;;;1999.90;999.90;;;;;;;;;;5117179;27;20223;-76
2022/10/18 08:20:16;;;;;;;1999.90;999.90;;;;;;;;;;5121332;27;20242;-76
2022/10/18 08:22:59;;;;;;;1999.90;999.90;;;;;;;;;;5100659;28;20380;-76
2022/10/18 08:25:27;;;;;;;1999.90;999.90;;;;;;;;;;5111264;27;20234;-76
2022/10/18 08:27:55;;;;;;;1999.90;999.90;;;;;;;;;;5112774;27;20225;-76
2022/10/18 08:30:23;;;;;;;1999.90;999.90;;;;;;;;;;5110833;27;20231;-75
2022/10/18 08:32:51;;;;;;;1999.90;999.90;;;;;;;;;;5108259;27;20699;-76
2022/10/18 08:35:19;;;;;;;1999.90;999.90;;;;;;;;;;5107546;27;20317;-76
2022/10/18 08:37:47;;;;;;;1999.90;999.90;;;;;;;;;;5107166;27;20733;-76
2022/10/18 08:40:16;;;;;;;1999.90;999.90;;;;;;;;;;5107747;27;20346;-76
2022/10/18 08:42:51;;;;;;;1999.90;999.90;;;;;;;;;;5106573;27;20280;-76
2022/10/18 08:45:19;;;;;;;1999.90;999.90;;;;;;;;;;5106719;27;20344;-76
2022/10/18 08:48:07;;;;;;;1999.90;999.90;;;;;;;;;;5108524;27;20234;-77
2022/10/18 08:50:37;;;;;;;1999.90;999.90;;;;;;;;;;5106813;27;20238;-76
2022/10/18 08:53:10;;;;;;;1999.90;999.90;;;;;;;;;;5106979;27;20525;-77
2022/10/18 08:55:41;;;;;;;1999.90;999.90;;;;;;;;;;5106531;27;20268;-77
2022/10/18 08:58:15;;;;;;;1999.90;999.90;;;;;;;;;;5107770;27;20758;-77
2022/10/18 09:00:46;;;;;;;1999.90;999.90;;;;;;;;;;5106822;27;20233;-75
2022/10/18 09:03:21;;;;;;;1999.90;999.90;;;;;;;;;;5105004;27;20233;-75
2022/10/18 09:05:51;;;;;;;1999.90;999.90;;;;;;;;;;5105172;27;20260;-75
2022/10/18 09:08:28;;;;;;;1999.90;999.90;;;;;;;;;;5105405;27;20226;-75
2022/10/18 09:11:01;;;;;;;1999.90;999.90;;;;;;;;;;5097721;27;20260;-76
2022/10/18 09:13:43;;;;;;;1999.90;999.90;;;;;;;;;;5105003;27;20230;-77
2022/10/18 09:16:13;;;;;;;1999.90;999.90;;;;;;;;;;5087014;27;20321;-76
2022/10/18 09:18:47;;;;;;;1999.90;999.90;;;;;;;;;;5105712;27;20231;-76
2022/10/18 09:21:18;;;;;;;1999.90;999.90;;;;;;;;;;5087095;27;20244;-76
2022/10/18 09:23:48;;;;;;;1999.90;999.90;;;;;;;;;;5104481;27;20241;-75
2022/10/18 09:26:19;;;;;;;1999.90;999.90;;;;;;;;;;5105683;27;20237;-76
2022/10/18 09:28:56;;;;;;;1999.90;999.90;;;;;;;;;;5103442;27;20762;-76
2022/10/18 09:31:28;;;;;;;1999.90;999.90;;;;;;;;;;5106447;27;20794;-76
2022/10/18 09:33:58;;;;;;;1999.90;999.90;;;;;;;;;;5105302;27;20241;-76
2022/10/18 09:36:29;;;;;;;1999.90;999.90;;;;;;;;;;5104738;27;20233;-76
2022/10/18 09:38:59;;;;;;;1999.90;999.90;;;;;;;;;;5102837;27;20911;-76
2022/10/18 09:41:33;;;;;;;1999.90;999.90;;;;;;;;;;5119597;27;20415;-76
2022/10/18 09:44:05;;;;;;;1999.90;999.90;;;;;;;;;;5083734;27;20387;-76
2022/10/18 09:46:37;;;;;;;1999.90;999.90;;;;;;;;;;5103965;27;21125;-76
2022/10/18 09:49:07;;;;;;;1999.90;999.90;;;;;;;;;;5101467;27;20417;-76
2022/10/18 09:51:42;;;;;;;1999.90;999.90;;;;;;;;;;5102040;27;20462;-76
2022/10/18 09:54:17;;;;;;;1999.90;999.90;;;;;;;;;;5099746;27;20417;-76
2022/10/18 09:56:48;;;;;;;1999.90;999.90;;;;;;;;;;5102550;27;20404;-76
2022/10/18 09:59:27;;;;;;;1999.90;999.90;;;;;;;;;;5103315;27;20226;-77
2022/10/18 10:01:55;;;;;;;1999.90;999.90;;;;;;;;;;5102395;27;20464;-76
2022/10/18 10:04:23;;;;;;;1999.90;999.90;;;;;;;;;;5104027;27;20392;-76
2022/10/18 10:06:51;;;;;;;1999.90;999.90;;;;;;;;;;5103904;27;20498;-76
2022/10/18 10:09:24;;;;;;;1999.90;999.90;;;;;;;;;;5104326;27;20249;-76
2022/10/18 10:11:54;;;;;;;1999.90;999.90;;;;;;;;;;5107165;27;20237;-76
2022/10/18 10:14:24;;;;;;;1999.90;999.90;;;;;;;;;;5105241;27;20238;-76
2022/10/18 10:16:54;;;;;;;1999.90;999.90;;;;;;;;;;5106203;27;20325;-76
2022/10/18 10:19:27;;;;;;;1999.90;999.90;;;;;;;;;;5102714;27;20395;-76
2022/10/18 10:21:57;;;;;;;1999.90;999.90;;;;;;;;;;5103918;27;20416;-76
2022/10/18 10:24:28;;;;;;;1999.90;999.90;;;;;;;;;;5086817;28;20319;-77
2022/10/18 10:27:00;;;;;;;1999.90;999.90;;;;;;;;;;5106021;27;20231;-77
2022/10/18 10:29:47;;;;;;;1999.90;999.90;;;;;;;;;;5103794;27;20398;-76
2022/10/18 10:32:16;;;;;;;1999.90;999.90;;;;;;;;;;5105027;27;20222;-76
2022/10/18 10:34:44;;;;;;;1999.90;999.90;;;;;;;;;;5089314;28;20227;-76
2022/10/18 10:37:23;;;;;;;1999.90;999.90;;;;;;;;;;5106773;27;20238;-77
2022/10/18 10:40:04;;;;;;;1999.90;999.90;;;;;;;;;;5109881;27;20233;-77
2022/10/18 10:43:04;;;;;;;1999.90;999.90;;;;;;;;;;5110190;27;20236;-77
2022/10/18 10:45:56;;;;;;;1999.90;999.90;;;;;;;;;;5110178;27;20391;-76
2022/10/18 10:48:24;;;;;;;1999.90;999.90;;;;;;;;;;5118043;27;20286;-76
2022/10/18 10:51:03;;;;;;;1999.90;999.90;;;;;;;;;;5121960;27;20248;-75
2022/10/18 10:53:43;;;;;;;1999.90;999.90;;;;;;;;;;5117750;27;20249;-76
2022/10/18 10:56:16;;;;;;;1999.90;999.90;;;;;;;;;;5112989;27;20229;-76
2022/10/18 10:58:45;;;;;;;1999.90;999.90;;;;;;;;;;5109048;27;20486;-76
2022/10/18 11:01:21;;;;;;;1999.90;999.90;;;;;;;;;;5106160;27;20395;-76
2022/10/18 11:03:49;;;;;;;1999.90;999.90;;;;;;;;;;5089579;28;20405;-76
2022/10/18 11:06:32;;;;;;;1999.90;999.90;;;;;;;;;;5089859;27;20222;-76
2022/10/18 11:09:01;;;;;;;1999.90;999.90;;;;;;;;;;5108545;27;20544;-77
2022/10/18 11:11:32;;;;;;;1999.90;999.90;;;;;;;;;;5109497;27;20238;-76
2022/10/18 11:14:04;;;;;;;1999.90;999.90;;;;;;;;;;5090980;27;20232;-77
2022/10/18 11:16:55;;;;;;;1999.90;999.90;;;;;;;;;;5109957;27;20241;-76
2022/10/18 11:19:29;;;;;;;1999.90;999.90;;;;;;;;;;5091282;28;20235;-76
2022/10/18 11:21:57;;;;;;;1999.90;999.90;;;;;;;;;;5107963;27;20723;-76
2022/10/18 11:24:25;;;;;;;1999.90;999.90;;;;;;;;;;5107158;27;20719;-77
2022/10/18 11:26:55;;;;;;;1999.90;999.90;;;;;;;;;;5108684;27;20469;-77
2022/10/18 11:29:31;;;;;;;1999.90;999.90;;;;;;;;;;5090992;28;21562;-77
2022/10/18 11:32:02;;;;;;;1999.90;999.90;;;;;;;;;;5106867;27;20226;-76
2022/10/18 11:34:38;;;;;;;1999.90;999.90;;;;;;;;;;5108538;27;20238;-77
2022/10/18 11:37:09;;;;;;;1999.90;999.90;;;;;;;;;;5108480;27;20985;-76
2022/10/18 11:40:01;;;;;;;1999.90;999.90;;;;;;;;;;5104256;27;20980;-76
2022/10/18 11:42:33;;;;;;;1999.90;999.90;;;;;;;;;;5102601;27;20630;-76
2022/10/18 11:45:14;;;;;;;1999.90;999.90;;;;;;;;;;5089033;27;20287;-77
2022/10/18 11:47:47;;;;;;;1999.90;999.90;;;;;;;;;;5107247;27;20715;-76
2022/10/18 11:50:26;;;;;;;1999.90;999.90;;;;;;;;;;5107542;27;20229;-76
2022/10/18 11:53:00;;;;;;;1999.90;999.90;;;;;;;;;;5106397;27;20263;-78
2022/10/18 11:55:46;;;;;;;1999.90;999.90;;;;;;;;;;5110863;27;20607;-77
2022/10/18 11:58:29;;;;;;;1999.90;999.90;;;;;;;;;;5105537;27;20282;-76
2022/10/18 12:01:05;;;;;;;1999.90;999.90;;;;;;;;;;5105523;27;20237;-76
2022/10/18 12:03:37;;;;;;;1999.90;999.90;;;;;;;;;;5108262;27;20233;-76
2022/10/18 12:06:06;;;;;;;1999.90;999.90;;;;;;;;;;5088165;27;20719;-76
2022/10/18 12:08:36;;;;;;;1999.90;999.90;;;;;;;;;;5106559;27;20291;-75
2022/10/18 12:11:08;;;;;;;1999.90;999.90;;;;;;;;;;5104737;27;20235;-74
2022/10/18 12:13:38;;;;;;;1999.90;999.90;;;;;;;;;;5104325;27;20425;-77
2022/10/18 12:16:09;;;;;;;1999.90;999.90;;;;;;;;;;5103180;27;20238;-76
2022/10/18 12:18:41;;;;;;;1999.90;999.90;;;;;;;;;;5103807;27;20336;-76
2022/10/18 12:21:11;;;;;;;1999.90;999.90;;;;;;;;;;5122299;27;20295;-77
2022/10/18 12:23:43;;;;;;;1999.90;999.90;;;;;;;;;;5103159;27;20242;-77
2022/10/18 12:26:11;;;;;;;1999.90;999.90;;;;;;;;;;5104495;27;20253;-77
2022/10/18 12:28:46;;;;;;;1999.90;999.90;;;;;;;;;;5117579;27;20241;-77
2022/10/18 12:31:19;;;;;;;1999.90;999.90;;;;;;;;;;5105430;27;20315;-76
2022/10/18 12:33:48;;;;;;;1999.90;999.90;;;;;;;;;;5105452;27;20745;-76
2022/10/18 12:36:24;;;;;;;1999.90;999.90;;;;;;;;;;5104520;27;20230;-76
2022/10/18 12:38:53;;;;;;;1999.90;999.90;;;;;;;;;;5105593;27;20236;-77
2022/10/18 12:41:23;;;;;;;1999.90;999.90;;;;;;;;;;5105934;27;20234;-77
2022/10/18 12:43:51;;;;;;;1999.90;999.90;;;;;;;;;;5105187;27;20272;-77
2022/10/18 12:46:21;;;;;;;1999.90;999.90;;;;;;;;;;5106097;27;20234;-76
2022/10/18 12:48:51;;;;;;;1999.90;999.90;;;;;;;;;;5089014;28;20238;-76
2022/10/18 12:51:20;;;;;;;1999.90;999.90;;;;;;;;;;5123290;27;20235;-76
2022/10/18 12:53:50;;;;;;;1999.90;999.90;;;;;;;;;;5088467;28;20226;-76
2022/10/18 12:56:36;;;;;;;1999.90;999.90;;;;;;;;;;5090324;27;20233;-76
2022/10/18 12:59:25;;;;;;;1999.90;999.90;;;;;;;;;;5106253;27;20291;-76
2022/10/18 13:02:18;;;;;;;1999.90;999.90;;;;;;;;;;5120632;27;20231;-76
2022/10/18 13:04:49;;;;;;;1999.90;999.90;;;;;;;;;;5102645;27;20225;-76
2022/10/18 13:07:19;;;;;;;1999.90;999.90;;;;;;;;;;5101734;27;20325;-77
2022/10/18 13:10:07;;;;;;;1999.90;999.90;;;;;;;;;;5102644;27;20234;-77
2022/10/18 13:12:49;;;;;;;1999.90;999.90;;;;;;;;;;5122553;27;20230;-76
2022/10/18 13:15:24;;;;;;;1999.90;999.90;;;;;;;;;;5108545;27;20299;-77
2022/10/18 13:17:59;;;;;;;1999.90;999.90;;;;;;;;;;5116791;27;20254;-76
2022/10/18 13:20:32;;;;;;;1999.90;999.90;;;;;;;;;;5096219;28;20260;-77
2022/10/18 13:23:08;;;;;;;1999.90;999.90;;;;;;;;;;5111977;27;20230;-76
2022/10/18 13:25:46;;;;;;;1999.90;999.90;;;;;;;;;;5108294;27;20658;-77
2022/10/18 13:28:20;;;;;;;1999.90;999.90;;;;;;;;;;5089464;27;21612;-76
2022/10/18 13:30:54;;;;;;;1999.90;999.90;;;;;;;;;;5104402;27;20321;-76
2022/10/18 13:33:34;;;;;;;1999.90;999.90;;;;;;;;;;5105671;27;20238;-77
2022/10/18 13:36:04;;;;;;;1999.90;999.90;;;;;;;;;;5086007;27;20741;-76
2022/10/18 13:38:35;;;;;;;1999.90;999.90;;;;;;;;;;5101601;27;20234;-75
2022/10/18 13:41:03;;;;;;;1999.90;999.90;;;;;;;;;;5103113;27;20331;-76
2022/10/18 13:43:50;;;;;;;1999.90;999.90;;;;;;;;;;5104996;27;20319;-75
2022/10/18 13:46:19;;;;;;;1999.90;999.90;;;;;;;;;;5106362;27;20230;-76
2022/10/18 13:48:49;;;;;;;1999.90;999.90;;;;;;;;;;5105442;27;20222;-76
2022/10/18 13:51:33;;;;;;;1999.90;999.90;;;;;;;;;;5100946;27;20257;-77
2022/10/18 13:54:07;;;;;;;1999.90;999.90;;;;;;;;;;5102737;27;20772;-76
2022/10/18 13:56:56;;;;;;;1999.90;999.90;;;;;;;;;;5097447;27;20227;-76
2022/10/18 13:59:32;;;;;;;1999.90;999.90;;;;;;;;;;5108474;27;20250;-76
2022/10/18 14:02:25;;;;;;;1999.90;999.90;;;;;;;;;;5098701;27;20233;-76